SARS/PRQ METAR and TAF weather

Enter ICAO airport designator
Station Type Date Time Source
SARS METAR 2019/06/15 08:07 UTC NOAA

SARS 150807Z 27001KT 0800 FG OVC005 19/19 Q1012


Station Type Date Time Source
SARS Decoded METAR 2019/06/15 08:07 UTC NOAA

Presidencia Roque Saenz Pena Aerodrome, Argentina (SARS) 26-49S 060-27W 92M
Jun 15, 2019 - 04:07 AM EDT / 2019.06.15 0807 UTC
Wind: from the W (270 degrees) at 1 MPH (1 KT):0
Visibility: less than 1 mile:0
Sky conditions: overcast
Weather: fog
Temperature: 66 F (19 C)
Dew Point: 66 F (19 C)
Relative Humidity: 100%
Pressure (altimeter): 29.88 in. Hg (1012 hPa)
ob: SARS 150807Z 27001KT 0800 FG OVC005 19/19 Q1012
cycle: 8

Station Type Date Time Source
SARS TAF UTC NOAA

Error!

Example: see airport list